createdAt,value
2023-03-24T00:00:43.543Z,7.50
2023-03-24T00:03:10.825Z,7.50
2023-03-24T00:05:38.395Z,7.50
2023-03-24T00:08:05.187Z,7.40
2023-03-24T00:10:34.580Z,7.60
2023-03-24T00:13:01.608Z,7.60
2023-03-24T00:15:28.323Z,7.60
2023-03-24T00:17:58.155Z,7.60
2023-03-24T00:20:26.171Z,7.60
2023-03-24T00:22:56.940Z,7.70
2023-03-24T00:25:28.035Z,7.70
2023-03-24T00:27:55.928Z,7.70
2023-03-24T00:30:23.381Z,7.80
2023-03-24T00:32:51.157Z,7.70
2023-03-24T00:35:18.340Z,7.40
2023-03-24T00:37:45.338Z,7.20
2023-03-24T00:40:14.237Z,7.30
2023-03-24T00:42:41.449Z,7.40
2023-03-24T00:45:09.446Z,7.20
2023-03-24T00:47:38.952Z,7.10
2023-03-24T00:50:06.589Z,7.20
2023-03-24T00:52:36.289Z,7.40
2023-03-24T00:55:04.417Z,7.50
2023-03-24T00:57:34.918Z,7.20
2023-03-24T01:00:09.242Z,6.80
2023-03-24T01:02:35.976Z,6.80
2023-03-24T01:05:02.737Z,6.90
2023-03-24T01:07:30.248Z,7.00
2023-03-24T01:09:57.836Z,6.90
2023-03-24T01:12:25.711Z,6.90
2023-03-24T01:14:52.941Z,6.90
2023-03-24T01:17:22.332Z,6.90
2023-03-24T01:19:49.192Z,7.00
2023-03-24T01:22:16.639Z,6.90
2023-03-24T01:24:43.775Z,6.80
2023-03-24T01:27:10.653Z,6.80
2023-03-24T01:29:37.315Z,6.80
2023-03-24T01:32:04.049Z,6.80
2023-03-24T01:34:32.065Z,6.90
2023-03-24T01:36:59.283Z,6.80
2023-03-24T01:39:26.104Z,6.80
2023-03-24T01:41:53.104Z,6.70
2023-03-24T01:44:31.681Z,6.60
2023-03-24T01:46:59.026Z,6.50
2023-03-24T01:49:29.330Z,6.50
2023-03-24T01:51:58.109Z,6.60
2023-03-24T01:54:36.780Z,6.80
2023-03-24T01:57:09.945Z,7.00
2023-03-24T01:59:38.217Z,7.00
2023-03-24T02:02:06.689Z,7.00
2023-03-24T02:04:34.879Z,7.10
2023-03-24T02:07:04.046Z,6.90
2023-03-24T02:09:31.035Z,6.60
2023-03-24T02:11:57.988Z,6.50
2023-03-24T02:14:24.707Z,6.50
2023-03-24T02:16:57.014Z,6.50
2023-03-24T02:19:37.970Z,6.70
2023-03-24T02:22:23.304Z,6.50
2023-03-24T02:24:56.025Z,6.30
2023-03-24T02:27:46.118Z,6.30
2023-03-24T02:30:25.218Z,6.40
2023-03-24T02:32:58.235Z,6.60
2023-03-24T02:35:44.986Z,6.80
2023-03-24T02:38:24.204Z,6.70
2023-03-24T02:41:06.224Z,6.50
2023-03-24T02:43:37.636Z,6.30
2023-03-24T02:46:04.362Z,6.20
2023-03-24T02:48:42.938Z,6.20
2023-03-24T02:51:09.608Z,6.40
2023-03-24T02:53:54.759Z,6.40
2023-03-24T02:56:29.895Z,6.40
2023-03-24T02:59:00.039Z,6.30
2023-03-24T03:01:32.406Z,6.30
2023-03-24T03:04:02.339Z,6.50
2023-03-24T03:06:34.624Z,6.50
2023-03-24T03:09:04.050Z,6.50
2023-03-24T03:11:30.946Z,6.40
2023-03-24T03:14:10.347Z,6.40
2023-03-24T03:16:39.939Z,6.50
2023-03-24T03:19:12.671Z,6.60
2023-03-24T03:21:41.819Z,6.70
2023-03-24T03:24:15.444Z,6.60
2023-03-24T03:26:43.149Z,6.60
2023-03-24T03:29:13.980Z,6.70
2023-03-24T03:31:45.485Z,6.80
2023-03-24T03:34:12.185Z,6.80
2023-03-24T03:36:46.487Z,6.60
2023-03-24T03:39:16.732Z,6.50
2023-03-24T03:41:43.578Z,6.40
2023-03-24T03:44:10.494Z,6.50
2023-03-24T03:46:37.532Z,6.60
2023-03-24T03:49:05.233Z,6.60
2023-03-24T03:51:33.004Z,6.60
2023-03-24T03:54:01.584Z,6.70
2023-03-24T03:56:29.229Z,6.70
2023-03-24T03:58:55.928Z,6.50
2023-03-24T04:01:25.516Z,6.60
2023-03-24T04:04:04.607Z,6.70
2023-03-24T04:06:36.410Z,6.70
2023-03-24T04:09:09.981Z,6.50
2023-03-24T04:11:45.895Z,6.60
2023-03-24T04:14:15.616Z,6.40
2023-03-24T04:16:48.748Z,6.20
2023-03-24T04:19:21.562Z,6.30
2023-03-24T04:21:58.440Z,6.40
2023-03-24T04:24:32.787Z,6.50
2023-03-24T04:27:07.284Z,6.50
2023-03-24T04:29:33.941Z,6.50
2023-03-24T04:32:02.328Z,6.50
2023-03-24T04:34:32.814Z,6.60
2023-03-24T04:37:02.817Z,6.70
2023-03-24T04:39:31.008Z,6.60
2023-03-24T04:41:59.218Z,6.50
2023-03-24T04:44:25.964Z,6.60
2023-03-24T04:46:56.035Z,6.70
2023-03-24T04:49:25.458Z,6.80
2023-03-24T04:51:52.145Z,6.80
2023-03-24T04:54:19.611Z,6.90
2023-03-24T04:56:47.776Z,6.90
2023-03-24T04:59:15.368Z,7.00
2023-03-24T05:01:49.948Z,7.00
2023-03-24T05:04:17.422Z,6.80
2023-03-24T05:06:44.182Z,6.40
2023-03-24T05:09:10.801Z,6.40
2023-03-24T05:11:37.726Z,6.60
2023-03-24T05:14:04.381Z,6.60
2023-03-24T05:16:31.081Z,6.50
2023-03-24T05:18:57.752Z,6.60
2023-03-24T05:21:24.394Z,6.60
2023-03-24T05:23:51.102Z,6.70
2023-03-24T05:26:17.771Z,6.50
2023-03-24T05:28:44.600Z,6.50
2023-03-24T05:31:11.463Z,6.60
2023-03-24T05:33:38.324Z,6.70
2023-03-24T05:36:05.234Z,6.90
2023-03-24T05:38:31.879Z,7.00
2023-03-24T05:40:58.985Z,7.20
2023-03-24T05:43:26.142Z,7.20
2023-03-24T05:45:53.000Z,7.20
2023-03-24T05:48:20.282Z,7.30
2023-03-24T05:50:46.914Z,7.30
2023-03-24T05:53:13.602Z,7.40
2023-03-24T05:55:40.235Z,7.40
2023-03-24T05:58:06.926Z,7.30
2023-03-24T06:00:33.628Z,7.40
2023-03-24T06:03:00.568Z,7.60
2023-03-24T06:05:27.385Z,7.70
2023-03-24T06:07:58.805Z,7.70
2023-03-24T06:10:29.386Z,7.80
2023-03-24T06:12:56.252Z,8.00
2023-03-24T06:15:24.338Z,8.10
2023-03-24T06:17:54.812Z,8.30
2023-03-24T06:20:22.108Z,8.40
2023-03-24T06:22:48.798Z,8.60
2023-03-24T06:25:16.788Z,8.70
2023-03-24T06:27:46.198Z,8.90
2023-03-24T06:30:15.596Z,9.00
2023-03-24T06:32:43.532Z,9.00
2023-03-24T06:35:10.702Z,9.10
2023-03-24T06:37:37.365Z,9.20
2023-03-24T06:40:05.104Z,9.30
2023-03-24T06:42:31.815Z,9.40
2023-03-24T06:44:58.452Z,9.40
2023-03-24T06:47:25.286Z,9.40
2023-03-24T06:49:51.980Z,9.50
2023-03-24T06:52:18.627Z,9.60
2023-03-24T06:54:45.617Z,9.60
2023-03-24T06:57:12.919Z,9.80
2023-03-24T06:59:39.568Z,9.90
2023-03-24T07:02:06.454Z,10.00
2023-03-24T07:04:36.459Z,10.20
2023-03-24T07:07:19.636Z,10.40
2023-03-24T07:09:50.473Z,10.60
2023-03-24T07:12:17.261Z,10.70
2023-03-24T07:14:43.965Z,10.90
2023-03-24T07:17:10.725Z,11.00
2023-03-24T07:19:37.398Z,11.10
2023-03-24T07:22:04.173Z,11.20
2023-03-24T07:24:31.875Z,11.30
2023-03-24T07:26:58.647Z,11.40
2023-03-24T07:29:25.290Z,11.50
2023-03-24T07:31:54.478Z,11.70
2023-03-24T07:34:21.233Z,11.90
2023-03-24T07:36:47.888Z,11.90
2023-03-24T07:39:14.567Z,11.90
2023-03-24T07:41:41.240Z,12.10
2023-03-24T07:44:08.646Z,12.10
2023-03-24T07:46:35.366Z,12.30
2023-03-24T07:49:12.226Z,12.30
2023-03-24T07:51:45.257Z,12.50
2023-03-24T07:54:12.004Z,12.60
2023-03-24T07:56:38.707Z,12.70
2023-03-24T07:59:05.470Z,12.90
2023-03-24T08:01:32.164Z,13.00
2023-03-24T08:03:58.853Z,13.10
2023-03-24T08:06:25.694Z,13.10
2023-03-24T08:08:52.409Z,13.30
2023-03-24T08:11:19.070Z,13.40
2023-03-24T08:13:46.006Z,13.60
2023-03-24T08:16:12.762Z,13.60
2023-03-24T08:18:39.501Z,13.70
2023-03-24T08:21:06.270Z,13.70
2023-03-24T08:23:32.987Z,13.80
2023-03-24T08:25:59.638Z,13.90
2023-03-24T08:28:26.329Z,14.00
2023-03-24T08:30:53.124Z,14.10
2023-03-24T08:33:19.814Z,14.20
2023-03-24T08:35:46.749Z,14.30
2023-03-24T08:38:16.306Z,14.40
2023-03-24T08:40:44.894Z,14.40
2023-03-24T08:43:13.948Z,14.50
2023-03-24T08:45:40.944Z,14.70
2023-03-24T08:48:08.075Z,14.70
2023-03-24T08:50:36.085Z,14.90
2023-03-24T08:53:02.794Z,15.00
2023-03-24T08:55:29.501Z,15.10
2023-03-24T08:57:56.305Z,15.10
2023-03-24T09:00:23.074Z,15.30
2023-03-24T09:02:51.905Z,15.50
2023-03-24T09:05:22.772Z,15.50
2023-03-24T09:07:53.885Z,15.40
2023-03-24T09:10:22.622Z,15.50
2023-03-24T09:12:49.388Z,15.50
2023-03-24T09:15:16.027Z,15.60
2023-03-24T09:17:43.130Z,15.70
2023-03-24T09:20:12.005Z,15.60
2023-03-24T09:22:41.122Z,15.80
2023-03-24T09:25:10.553Z,16.10
2023-03-24T09:27:37.281Z,16.40
2023-03-24T09:30:04.256Z,16.30
2023-03-24T09:32:30.921Z,16.40
2023-03-24T09:34:57.616Z,16.70
2023-03-24T09:37:24.297Z,16.60
2023-03-24T09:39:51.046Z,16.60
2023-03-24T09:42:21.910Z,16.50
2023-03-24T09:44:50.676Z,16.70
2023-03-24T09:47:29.691Z,16.60
2023-03-24T09:49:58.450Z,16.60
2023-03-24T09:52:28.989Z,16.90
2023-03-24T09:55:02.407Z,17.00
2023-03-24T09:57:37.368Z,17.10
2023-03-24T10:00:39.112Z,17.10
2023-03-24T10:03:14.592Z,17.00
2023-03-24T10:05:47.244Z,17.10
2023-03-24T10:08:17.253Z,17.20
2023-03-24T10:10:49.694Z,17.30
2023-03-24T10:13:20.577Z,17.60
2023-03-24T10:15:59.196Z,17.60
2023-03-24T10:18:32.450Z,17.70
2023-03-24T10:21:02.241Z,17.60
2023-03-24T10:23:45.925Z,17.60
2023-03-24T10:26:26.984Z,17.60
2023-03-24T10:29:11.635Z,17.60
2023-03-24T10:31:38.976Z,17.60
2023-03-24T10:34:08.343Z,17.40
2023-03-24T10:36:35.947Z,17.40
2023-03-24T10:39:38.043Z,17.60
2023-03-24T10:42:18.783Z,18.00
2023-03-24T10:44:47.014Z,17.90
2023-03-24T10:47:14.883Z,18.40
2023-03-24T10:49:52.476Z,18.30
2023-03-24T10:52:19.766Z,18.60
2023-03-24T10:54:59.125Z,18.50
2023-03-24T10:57:27.123Z,18.50
2023-03-24T11:00:14.302Z,18.90
2023-03-24T11:02:42.289Z,19.10
2023-03-24T11:05:11.622Z,19.10
2023-03-24T11:07:39.620Z,18.90
2023-03-24T11:10:15.343Z,18.90
2023-03-24T11:12:44.180Z,19.00
2023-03-24T11:15:22.534Z,19.00
2023-03-24T11:17:54.851Z,18.90
2023-03-24T11:20:25.993Z,18.80
2023-03-24T11:23:13.781Z,18.70
2023-03-24T11:25:41.526Z,18.70
2023-03-24T11:28:16.103Z,18.60
2023-03-24T11:30:47.225Z,18.60
2023-03-24T11:33:35.769Z,18.80
2023-03-24T11:36:22.146Z,18.90
2023-03-24T11:38:58.290Z,18.80
2023-03-24T11:41:24.965Z,18.80
2023-03-24T11:44:07.914Z,18.90
2023-03-24T11:46:35.353Z,19.00
2023-03-24T11:49:02.682Z,18.90
2023-03-24T11:51:32.724Z,18.90
2023-03-24T11:54:01.139Z,19.00
2023-03-24T11:56:34.098Z,19.10
2023-03-24T11:59:05.927Z,19.20
2023-03-24T12:01:42.795Z,19.20
2023-03-24T12:04:28.238Z,19.30
2023-03-24T12:06:58.294Z,19.30
2023-03-24T12:09:32.377Z,19.10
2023-03-24T12:12:17.849Z,19.10
2023-03-24T12:15:07.829Z,19.10
2023-03-24T12:17:38.542Z,19.20
2023-03-24T12:20:27.470Z,19.20
2023-03-24T12:23:14.407Z,19.40
2023-03-24T12:25:50.468Z,19.30
2023-03-24T12:28:19.387Z,19.20
2023-03-24T12:31:05.912Z,19.20
2023-03-24T12:33:38.106Z,19.20
2023-03-24T12:36:12.755Z,19.20
2023-03-24T12:38:51.447Z,19.10
2023-03-24T12:41:26.031Z,19.10
2023-03-24T12:44:11.041Z,19.10
2023-03-24T12:46:47.638Z,18.90
2023-03-24T12:49:15.233Z,18.80
2023-03-24T12:51:55.293Z,18.80
2023-03-24T12:54:29.977Z,18.80
2023-03-24T12:57:08.642Z,18.70
2023-03-24T12:59:41.693Z,18.80
2023-03-24T13:02:17.472Z,18.80
2023-03-24T13:04:46.098Z,18.80
2023-03-24T13:07:17.808Z,18.80
2023-03-24T13:09:53.590Z,18.60
2023-03-24T13:12:40.496Z,18.50
2023-03-24T13:15:07.208Z,18.50
2023-03-24T13:17:38.110Z,18.50
2023-03-24T13:20:07.106Z,18.50
2023-03-24T13:22:34.378Z,18.50
2023-03-24T13:25:01.683Z,18.40
2023-03-24T13:27:40.500Z,18.40
2023-03-24T13:30:08.917Z,18.40
2023-03-24T13:32:44.938Z,18.50
2023-03-24T13:35:31.794Z,18.50
2023-03-24T13:38:17.894Z,18.50
2023-03-24T13:40:46.725Z,18.50
2023-03-24T13:43:17.169Z,18.50
2023-03-24T13:45:48.429Z,18.40
2023-03-24T13:48:15.327Z,18.50
2023-03-24T13:51:01.844Z,18.50
2023-03-24T13:53:39.950Z,18.60
2023-03-24T13:56:08.002Z,18.70
2023-03-24T13:58:56.322Z,18.80
2023-03-24T14:01:37.256Z,19.00
2023-03-24T14:04:32.048Z,19.20
2023-03-24T14:06:59.771Z,19.40
2023-03-24T14:09:30.970Z,19.40
2023-03-24T14:12:04.125Z,19.60
2023-03-24T14:14:33.634Z,19.70
2023-03-24T14:17:06.197Z,19.70
2023-03-24T14:20:09.857Z,19.70
2023-03-24T14:22:48.352Z,19.60
2023-03-24T14:25:15.222Z,19.50
2023-03-24T14:27:42.838Z,19.50
2023-03-24T14:30:18.593Z,19.60
2023-03-24T14:32:45.337Z,19.60
2023-03-24T14:35:31.775Z,19.50
2023-03-24T14:38:01.562Z,19.40
2023-03-24T14:40:38.955Z,19.40
2023-03-24T14:43:05.863Z,19.40
2023-03-24T14:45:36.585Z,19.40
2023-03-24T14:48:06.715Z,19.40
2023-03-24T14:50:33.925Z,19.40
2023-03-24T14:53:02.319Z,19.30
2023-03-24T14:55:30.731Z,19.30
2023-03-24T14:58:02.544Z,19.30
2023-03-24T15:00:57.999Z,19.20
2023-03-24T15:03:39.745Z,19.20
2023-03-24T15:06:14.549Z,19.10
2023-03-24T15:08:44.847Z,19.10
2023-03-24T15:11:11.804Z,19.00
2023-03-24T15:13:59.298Z,19.00
2023-03-24T15:16:29.992Z,18.90
2023-03-24T15:19:10.695Z,18.90
2023-03-24T15:21:46.784Z,18.80
2023-03-24T15:24:22.438Z,18.80
2023-03-24T15:26:51.392Z,18.90
2023-03-24T15:29:18.039Z,19.00
2023-03-24T15:31:44.918Z,19.20
2023-03-24T15:34:31.401Z,19.30
2023-03-24T15:36:59.678Z,19.40
2023-03-24T15:39:27.864Z,19.40
2023-03-24T15:41:54.981Z,19.40
2023-03-24T15:44:25.624Z,19.30
2023-03-24T15:46:54.556Z,19.20
2023-03-24T15:49:31.489Z,19.20
2023-03-24T15:51:59.481Z,19.20
2023-03-24T15:54:30.893Z,19.10
2023-03-24T15:57:16.624Z,19.00
2023-03-24T16:03:26.422Z,18.70
2023-03-24T16:05:56.741Z,18.60
2023-03-24T16:08:27.344Z,18.50
2023-03-24T16:10:58.675Z,18.40
2023-03-24T16:13:25.800Z,18.30
2023-03-24T16:16:00.308Z,18.20
2023-03-24T16:18:32.079Z,18.10
2023-03-24T16:20:59.663Z,18.00
2023-03-24T16:23:26.887Z,17.90
2023-03-24T16:25:53.638Z,17.80
2023-03-24T16:28:21.857Z,17.70
2023-03-24T16:30:52.091Z,17.10
2023-03-24T16:33:21.643Z,17.00
2023-03-24T16:35:48.548Z,16.80
2023-03-24T16:38:17.403Z,16.70
2023-03-24T16:40:46.211Z,16.70
2023-03-24T16:43:13.444Z,16.80
2023-03-24T16:45:40.134Z,16.40
2023-03-24T16:48:07.523Z,16.10
2023-03-24T16:50:42.326Z,15.70
2023-03-24T16:53:09.524Z,15.80
2023-03-24T16:55:37.086Z,15.90
2023-03-24T16:58:04.155Z,15.70
2023-03-24T17:00:31.132Z,15.80
2023-03-24T17:03:00.210Z,16.00
2023-03-24T17:05:28.783Z,15.90
2023-03-24T17:07:56.094Z,15.60
2023-03-24T17:10:24.081Z,15.10
2023-03-24T17:12:51.302Z,15.10
2023-03-24T17:15:21.011Z,15.30
2023-03-24T17:17:47.824Z,15.50
2023-03-24T17:20:15.465Z,15.50
2023-03-24T17:22:43.343Z,15.30
2023-03-24T17:25:13.849Z,15.10
2023-03-24T17:27:40.598Z,15.00
2023-03-24T17:30:07.981Z,15.00
2023-03-24T17:32:34.824Z,14.90
2023-03-24T17:35:02.337Z,15.00
2023-03-24T17:37:29.878Z,15.20
2023-03-24T17:39:57.074Z,15.50
2023-03-24T17:42:26.116Z,15.70
2023-03-24T17:44:53.071Z,15.90
2023-03-24T17:47:19.755Z,16.00
2023-03-24T17:49:46.864Z,15.90
2023-03-24T17:52:13.548Z,15.80
2023-03-24T17:54:40.360Z,15.80
2023-03-24T17:57:07.451Z,15.70
2023-03-24T17:59:34.405Z,15.60
2023-03-24T18:02:01.243Z,15.40
2023-03-24T18:04:28.034Z,15.40
2023-03-24T18:06:55.025Z,15.30
2023-03-24T18:09:22.434Z,15.20
2023-03-24T18:11:49.173Z,15.10
2023-03-24T18:14:16.053Z,15.10
2023-03-24T18:16:42.810Z,15.00
2023-03-24T18:19:09.615Z,15.00
2023-03-24T18:21:36.691Z,14.90
2023-03-24T18:24:04.571Z,14.80
2023-03-24T18:26:31.336Z,14.80
2023-03-24T18:28:58.038Z,14.80
2023-03-24T18:31:26.335Z,14.60
2023-03-24T18:33:54.201Z,14.50
2023-03-24T18:36:22.157Z,14.50
2023-03-24T18:38:49.259Z,14.50
2023-03-24T18:41:18.330Z,14.50
2023-03-24T18:43:48.232Z,14.50
2023-03-24T18:46:15.393Z,14.40
2023-03-24T18:48:43.245Z,14.40
2023-03-24T18:51:10.876Z,14.10
2023-03-24T18:53:37.753Z,14.20
2023-03-24T18:56:06.028Z,14.20
2023-03-24T18:58:33.808Z,14.30
2023-03-24T19:01:04.729Z,14.30
2023-03-24T19:03:31.597Z,14.20
2023-03-24T19:06:01.056Z,14.20
2023-03-24T19:08:27.950Z,14.10
2023-03-24T19:10:55.301Z,14.00
2023-03-24T19:13:21.950Z,14.10
2023-03-24T19:15:49.055Z,13.60
2023-03-24T19:18:17.780Z,13.30
2023-03-24T19:21:10.286Z,13.20
2023-03-24T19:23:37.104Z,13.00
2023-03-24T19:26:09.725Z,13.10
2023-03-24T19:28:37.591Z,12.80
2023-03-24T19:31:08.982Z,12.60
2023-03-24T19:33:36.924Z,12.70
2023-03-24T19:36:04.224Z,12.50
2023-03-24T19:38:31.240Z,12.50
2023-03-24T19:40:57.917Z,12.70
2023-03-24T19:43:25.205Z,12.60
2023-03-24T19:45:55.782Z,12.20
2023-03-24T19:48:23.132Z,12.20
2023-03-24T19:50:50.823Z,12.30
2023-03-24T19:53:17.826Z,12.20
2023-03-24T19:55:44.877Z,12.20
2023-03-24T19:58:11.527Z,12.30
2023-03-24T20:00:38.477Z,12.20
2023-03-24T20:03:05.492Z,12.20
2023-03-24T20:05:32.447Z,12.10
2023-03-24T20:08:04.325Z,12.20
2023-03-24T20:10:31.366Z,11.70
2023-03-24T20:12:58.015Z,11.60
2023-03-24T20:18:52.817Z,11.80
2023-03-24T20:21:22.315Z,11.80
2023-03-24T20:23:49.548Z,11.90
2023-03-24T20:26:16.491Z,12.20
2023-03-24T20:28:43.188Z,12.20
2023-03-24T20:31:10.498Z,12.10
2023-03-24T20:33:37.283Z,11.90
2023-03-24T20:39:26.503Z,12.10
2023-03-24T20:42:08.500Z,12.20
2023-03-24T20:44:35.369Z,12.30
2023-03-24T20:47:03.225Z,12.20
2023-03-24T20:53:01.125Z,12.10
2023-03-24T20:55:27.962Z,12.20
2023-03-24T20:57:55.921Z,12.30
2023-03-24T21:04:10.967Z,12.00
2023-03-24T21:06:40.720Z,11.90
2023-03-24T21:09:07.736Z,11.90
2023-03-24T21:11:34.496Z,12.10
2023-03-24T21:14:02.631Z,12.10
2023-03-24T21:16:33.666Z,11.90
2023-03-24T21:19:03.655Z,11.90
2023-03-24T21:21:32.252Z,11.90
2023-03-24T21:24:00.498Z,11.80
2023-03-24T21:26:27.347Z,11.90
2023-03-24T21:28:54.115Z,12.00
2023-03-24T21:31:22.285Z,12.00
2023-03-24T21:33:49.254Z,12.10
2023-03-24T21:36:16.922Z,12.10
2023-03-24T21:38:43.667Z,11.90
2023-03-24T21:41:10.987Z,11.70
2023-03-24T21:43:38.272Z,11.90
2023-03-24T21:46:05.092Z,12.10
2023-03-24T21:48:40.118Z,12.10
2023-03-24T21:51:06.863Z,12.20
2023-03-24T21:53:34.848Z,12.00
2023-03-24T21:56:04.905Z,12.00
2023-03-24T21:58:32.024Z,12.00
2023-03-24T22:00:59.277Z,11.90
2023-03-24T22:03:26.533Z,11.90
2023-03-24T22:05:56.375Z,11.90
2023-03-24T22:08:26.842Z,11.80
2023-03-24T22:11:00.278Z,11.70
2023-03-24T22:13:27.429Z,11.70
2023-03-24T22:15:55.031Z,11.80
2023-03-24T22:18:26.136Z,11.80
2023-03-24T22:20:56.692Z,11.90
2023-03-24T22:23:23.367Z,11.90
2023-03-24T22:25:52.221Z,11.80
2023-03-24T22:28:20.439Z,11.80
2023-03-24T22:30:47.298Z,11.80
2023-03-24T22:33:14.016Z,11.80
2023-03-24T22:35:40.938Z,11.90
2023-03-24T22:38:07.869Z,11.80
2023-03-24T22:40:34.505Z,11.60
2023-03-24T22:43:01.228Z,11.50
2023-03-24T22:45:27.923Z,11.50
2023-03-24T22:47:54.675Z,11.50
2023-03-24T22:50:21.339Z,11.30
2023-03-24T22:52:48.004Z,11.30
2023-03-24T22:55:14.649Z,11.20
2023-03-24T22:57:41.474Z,11.20
2023-03-24T23:00:08.533Z,11.20
2023-03-24T23:02:35.360Z,11.10
2023-03-24T23:05:02.152Z,11.10
2023-03-24T23:07:29.605Z,11.00
2023-03-24T23:09:59.440Z,11.00
2023-03-24T23:12:26.607Z,10.90
2023-03-24T23:14:56.319Z,11.00
2023-03-24T23:17:25.969Z,10.90
2023-03-24T23:19:53.426Z,11.00
2023-03-24T23:22:21.244Z,11.00
2023-03-24T23:24:48.891Z,10.50
2023-03-24T23:27:16.281Z,10.50
2023-03-24T23:29:42.988Z,10.50
2023-03-24T23:32:09.730Z,10.30
2023-03-24T23:34:36.518Z,10.50
2023-03-24T23:37:06.072Z,10.70
2023-03-24T23:39:33.890Z,10.70
2023-03-24T23:42:00.580Z,10.60
2023-03-24T23:44:27.274Z,10.30
2023-03-24T23:46:53.922Z,10.40
2023-03-24T23:49:20.654Z,10.40
2023-03-24T23:51:47.347Z,10.40
2023-03-24T23:54:14.007Z,10.40
2023-03-24T23:56:40.854Z,10.50
2023-03-24T23:59:07.933Z,10.30
